createdAt,value
2024-01-05T00:01:55.037Z,6.68
2024-01-05T00:04:22.990Z,5.80
2024-01-05T00:06:53.882Z,6.90
2024-01-05T00:09:21.840Z,6.53
2024-01-05T00:11:52.503Z,7.10
2024-01-05T00:14:20.615Z,6.45
2024-01-05T00:16:48.386Z,7.90
2024-01-05T00:19:16.356Z,7.63
2024-01-05T00:21:44.212Z,6.78
2024-01-05T00:24:12.199Z,5.68
2024-01-05T00:26:44.867Z,5.47
2024-01-05T00:29:14.640Z,4.50
2024-01-05T00:31:44.626Z,5.65
2024-01-05T00:34:12.585Z,6.10
2024-01-05T00:36:40.832Z,5.55
2024-01-05T00:39:08.928Z,5.50
2024-01-05T00:41:36.848Z,4.55
2024-01-05T00:44:05.112Z,5.63
2024-01-05T00:46:38.364Z,4.40
2024-01-05T00:49:07.324Z,5.38
2024-01-05T00:51:35.334Z,6.15
2024-01-05T00:54:03.352Z,4.78
2024-01-05T00:56:31.192Z,6.05
2024-01-05T00:58:58.980Z,5.22
2024-01-05T01:01:26.781Z,3.92
2024-01-05T01:03:56.181Z,5.35
2024-01-05T01:06:24.078Z,4.22
2024-01-05T01:08:52.004Z,4.38
2024-01-05T01:11:19.842Z,4.55
2024-01-05T01:13:47.911Z,5.97
2024-01-05T01:16:15.777Z,5.32
2024-01-05T01:18:44.208Z,4.75
2024-01-05T01:21:13.461Z,5.20
2024-01-05T01:23:41.339Z,4.30
2024-01-05T01:26:09.404Z,4.60
2024-01-05T01:28:37.312Z,3.08
2024-01-05T01:31:05.237Z,4.55
2024-01-05T01:33:35.742Z,3.22
2024-01-05T01:36:04.138Z,3.75
2024-01-05T01:38:33.666Z,3.70
2024-01-05T01:41:03.646Z,4.35
2024-01-05T01:43:31.601Z,4.38
2024-01-05T01:46:02.082Z,2.97
2024-01-05T01:48:31.427Z,3.13
2024-01-05T01:51:00.150Z,2.95
2024-01-05T01:53:29.090Z,3.65
2024-01-05T01:55:59.399Z,3.35
2024-01-05T01:58:30.201Z,3.13
2024-01-05T02:00:58.069Z,2.60
2024-01-05T02:03:26.345Z,3.20
2024-01-05T02:05:54.916Z,3.13
2024-01-05T02:08:23.013Z,3.05
2024-01-05T02:10:50.840Z,3.67
2024-01-05T02:13:20.057Z,2.95
2024-01-05T02:15:47.891Z,2.83
2024-01-05T02:18:16.885Z,3.75
2024-01-05T02:20:46.350Z,2.95
2024-01-05T02:23:22.465Z,2.90
2024-01-05T02:25:53.009Z,2.85
2024-01-05T02:28:21.083Z,2.30
2024-01-05T02:30:49.277Z,3.15
2024-01-05T02:33:17.520Z,2.83
2024-01-05T02:35:45.709Z,2.55
2024-01-05T02:38:13.639Z,3.13
2024-01-05T02:40:42.899Z,3.47
2024-01-05T02:43:10.783Z,3.33
2024-01-05T02:45:38.610Z,2.70
2024-01-05T02:48:07.934Z,3.15
2024-01-05T02:50:35.796Z,3.83
2024-01-05T02:53:03.930Z,3.13
2024-01-05T02:55:32.008Z,3.42
2024-01-05T02:58:03.428Z,2.55
2024-01-05T03:00:31.390Z,2.35
2024-01-05T03:02:59.212Z,3.13
2024-01-05T03:05:27.046Z,3.15
2024-01-05T03:07:55.306Z,2.97
2024-01-05T03:10:23.217Z,2.80
2024-01-05T03:12:52.946Z,2.78
2024-01-05T03:15:22.231Z,2.53
2024-01-05T03:17:50.250Z,3.38
2024-01-05T03:20:19.001Z,2.70
2024-01-05T03:22:47.094Z,2.10
2024-01-05T03:25:14.934Z,2.80
2024-01-05T03:27:42.707Z,2.63
2024-01-05T03:30:11.346Z,2.97
2024-01-05T03:32:42.819Z,2.20
2024-01-05T03:35:10.792Z,2.58
2024-01-05T03:37:40.401Z,2.33
2024-01-05T03:40:09.159Z,2.08
2024-01-05T03:42:36.979Z,2.65
2024-01-05T03:45:06.077Z,2.97
2024-01-05T03:47:33.976Z,3.22
2024-01-05T03:50:03.857Z,2.53
2024-01-05T03:52:31.830Z,3.30
2024-01-05T03:54:59.765Z,2.72
2024-01-05T03:57:27.646Z,2.80
2024-01-05T03:59:55.653Z,2.45
2024-01-05T04:02:23.476Z,2.35
2024-01-05T04:04:51.412Z,2.40
2024-01-05T04:07:20.896Z,3.10
2024-01-05T04:09:50.175Z,2.10
2024-01-05T04:12:19.064Z,2.15
2024-01-05T04:14:46.943Z,3.45
2024-01-05T04:17:15.345Z,2.72
2024-01-05T04:19:43.333Z,3.17
2024-01-05T04:22:11.281Z,2.50
2024-01-05T04:24:42.360Z,2.47
2024-01-05T04:27:10.384Z,2.42
2024-01-05T04:29:39.909Z,2.28
2024-01-05T04:32:07.752Z,2.55
2024-01-05T04:34:35.735Z,2.38
2024-01-05T04:37:03.816Z,2.20
2024-01-05T04:39:34.052Z,2.33
2024-01-05T04:42:04.371Z,2.72
2024-01-05T04:44:32.189Z,3.00
2024-01-05T04:46:59.961Z,2.15
2024-01-05T04:49:28.040Z,3.03
2024-01-05T04:51:56.064Z,2.58
2024-01-05T04:54:26.714Z,2.33
2024-01-05T04:56:54.617Z,2.00
2024-01-05T04:59:23.784Z,1.92
2024-01-05T05:01:51.664Z,2.28
2024-01-05T05:04:19.563Z,2.20
2024-01-05T05:06:47.406Z,2.10
2024-01-05T05:09:16.124Z,2.42
2024-01-05T05:11:44.700Z,1.85
2024-01-05T05:14:12.978Z,2.38
2024-01-05T05:16:42.242Z,2.03
2024-01-05T05:19:10.379Z,2.13
2024-01-05T05:21:38.495Z,2.53
2024-01-05T05:24:06.403Z,2.50
2024-01-05T05:26:34.285Z,1.98
2024-01-05T05:29:02.069Z,1.73
2024-01-05T05:31:30.172Z,3.17
2024-01-05T05:33:59.539Z,2.55
2024-01-05T05:36:27.431Z,2.70
2024-01-05T05:38:55.265Z,3.15
2024-01-05T05:41:23.422Z,2.28
2024-01-05T05:43:52.372Z,1.98
2024-01-05T05:46:20.288Z,2.40
2024-01-05T05:48:48.366Z,2.40
2024-01-05T05:51:20.613Z,2.17
2024-01-05T05:53:48.536Z,2.10
2024-01-05T05:56:16.415Z,2.33
2024-01-05T05:58:44.302Z,2.22
2024-01-05T06:01:15.178Z,2.65
2024-01-05T06:03:43.272Z,2.30
2024-01-05T06:06:21.120Z,2.20
2024-01-05T06:08:49.530Z,2.15
2024-01-05T06:11:18.518Z,2.50
2024-01-05T06:13:47.210Z,2.72
2024-01-05T06:16:15.435Z,2.55
2024-01-05T06:18:43.836Z,2.38
2024-01-05T06:21:14.202Z,2.13
2024-01-05T06:23:43.567Z,1.65
2024-01-05T06:26:11.680Z,1.90
2024-01-05T06:28:40.502Z,2.38
2024-01-05T06:31:08.886Z,1.80
2024-01-05T06:33:36.942Z,1.63
2024-01-05T06:36:06.691Z,1.90
2024-01-05T06:38:34.905Z,2.67
2024-01-05T06:41:04.221Z,2.25
2024-01-05T06:43:32.092Z,2.15
2024-01-05T06:46:00.010Z,2.80
2024-01-05T06:48:29.839Z,2.20
2024-01-05T06:50:57.957Z,2.20
2024-01-05T06:53:25.870Z,1.92
2024-01-05T06:55:53.657Z,2.53
2024-01-05T06:58:25.029Z,2.35
2024-01-05T07:00:53.031Z,2.20
2024-01-05T07:03:21.284Z,2.67
2024-01-05T07:05:49.814Z,2.13
2024-01-05T07:08:17.629Z,1.95
2024-01-05T07:10:45.554Z,1.92
2024-01-05T07:13:13.634Z,1.70
2024-01-05T07:15:43.319Z,1.73
2024-01-05T07:18:13.015Z,2.25
2024-01-05T07:20:41.091Z,1.92
2024-01-05T07:23:08.958Z,2.10
2024-01-05T07:25:38.755Z,1.80
2024-01-05T07:28:06.877Z,1.80
2024-01-05T07:30:34.912Z,2.40
2024-01-05T07:33:04.946Z,1.73
2024-01-05T07:35:33.017Z,2.10
2024-01-05T07:38:01.122Z,1.95
2024-01-05T07:40:29.048Z,1.98
2024-01-05T07:42:56.854Z,2.08
2024-01-05T07:45:24.659Z,1.60
2024-01-05T07:47:56.001Z,2.35
2024-01-05T07:50:25.597Z,1.92
2024-01-05T07:52:53.414Z,2.40
2024-01-05T07:55:21.239Z,1.38
2024-01-05T07:57:49.252Z,1.95
2024-01-05T08:00:17.517Z,1.98
2024-01-05T08:02:45.531Z,1.98
2024-01-05T08:05:13.777Z,2.40
2024-01-05T08:07:45.284Z,2.08
2024-01-05T08:10:13.286Z,1.55
2024-01-05T08:12:41.152Z,2.53
2024-01-05T08:15:09.388Z,1.88
2024-01-05T08:17:37.619Z,2.20
2024-01-05T08:20:07.065Z,1.90
2024-01-05T08:22:35.518Z,1.80
2024-01-05T08:25:05.272Z,2.00
2024-01-05T08:27:33.404Z,1.73
2024-01-05T08:30:01.299Z,1.65
2024-01-05T08:32:29.217Z,1.42
2024-01-05T08:34:57.153Z,2.08
2024-01-05T08:37:25.884Z,1.52
2024-01-05T08:39:53.735Z,1.55
2024-01-05T08:42:23.113Z,1.98
2024-01-05T08:44:53.673Z,2.35
2024-01-05T08:47:21.825Z,2.08
2024-01-05T08:49:49.660Z,2.72
2024-01-05T08:52:17.587Z,3.03
2024-01-05T08:54:46.848Z,1.67
2024-01-05T08:57:16.745Z,2.33
2024-01-05T08:59:45.960Z,2.30
2024-01-05T09:02:14.193Z,1.50
2024-01-05T09:04:43.121Z,1.77
2024-01-05T09:07:13.073Z,2.15
2024-01-05T09:09:41.214Z,2.28
2024-01-05T09:12:09.963Z,2.10
2024-01-05T09:14:38.405Z,1.85
2024-01-05T09:17:08.067Z,1.85
2024-01-05T09:19:36.802Z,2.10
2024-01-05T09:22:05.133Z,1.95
2024-01-05T09:24:35.441Z,1.75
2024-01-05T09:27:03.590Z,1.90
2024-01-05T09:29:32.608Z,1.50
2024-01-05T09:32:01.258Z,1.33
2024-01-05T09:34:31.862Z,1.70
2024-01-05T09:36:59.889Z,1.92
2024-01-05T09:39:29.568Z,1.90
2024-01-05T09:41:57.722Z,1.50
2024-01-05T09:44:26.020Z,1.67
2024-01-05T09:46:55.503Z,1.75
2024-01-05T09:49:23.565Z,1.65
2024-01-05T09:51:57.365Z,1.50
2024-01-05T09:54:25.341Z,1.77
2024-01-05T09:56:53.790Z,1.80
2024-01-05T09:59:23.488Z,1.38
2024-01-05T10:01:51.957Z,1.70
2024-01-05T10:04:20.983Z,2.05
2024-01-05T10:06:59.677Z,1.40
2024-01-05T10:09:28.475Z,1.58
2024-01-05T10:11:57.926Z,1.40
2024-01-05T10:14:27.485Z,1.40
2024-01-05T10:17:08.771Z,1.60
2024-01-05T10:19:36.996Z,1.23
2024-01-05T10:22:12.072Z,1.33
2024-01-05T10:24:40.889Z,1.05
2024-01-05T10:27:10.719Z,1.30
2024-01-05T10:29:43.701Z,0.90
2024-01-05T10:32:13.184Z,1.10
2024-01-05T10:34:43.054Z,0.90
2024-01-05T10:37:14.704Z,0.90
2024-01-05T10:39:46.686Z,0.60
2024-01-05T10:42:22.986Z,1.00
2024-01-05T10:44:53.076Z,0.73
2024-01-05T10:47:23.502Z,0.77
2024-01-05T10:49:52.736Z,1.13
2024-01-05T10:52:23.921Z,0.50
2024-01-05T10:54:53.665Z,0.60
2024-01-05T10:57:23.079Z,0.50
2024-01-05T10:59:52.274Z,0.50
2024-01-05T11:02:24.307Z,0.80
2024-01-05T11:05:06.651Z,0.60
2024-01-05T11:07:36.730Z,0.50
2024-01-05T11:10:16.009Z,0.68
2024-01-05T11:13:02.106Z,0.63
2024-01-05T11:15:42.560Z,0.30
2024-01-05T11:18:28.569Z,0.40
2024-01-05T11:21:08.429Z,1.35
2024-01-05T11:23:47.811Z,1.77
2024-01-05T11:26:47.644Z,0.55
2024-01-05T11:29:47.883Z,0.40
2024-01-05T11:32:39.430Z,0.52
2024-01-05T11:35:52.034Z,0.50
2024-01-05T11:38:27.898Z,0.38
2024-01-05T11:43:38.121Z,0.47
2024-01-05T11:46:17.938Z,0.52
2024-01-05T11:48:56.787Z,0.40
2024-01-05T11:51:25.811Z,0.68
2024-01-05T11:53:53.931Z,0.50
2024-01-05T11:56:27.269Z,0.50
2024-01-05T11:58:55.262Z,0.60
2024-01-05T12:01:24.009Z,0.50
2024-01-05T12:03:54.647Z,0.50
2024-01-05T12:06:22.957Z,1.35
2024-01-05T12:08:51.234Z,0.40
2024-01-05T12:11:20.984Z,0.63
2024-01-05T12:13:54.185Z,0.60
2024-01-05T12:16:23.203Z,0.80
2024-01-05T12:18:53.838Z,0.68
2024-01-05T12:21:22.893Z,0.60
2024-01-05T12:23:52.830Z,0.80
2024-01-05T12:26:21.050Z,0.68
2024-01-05T12:29:19.194Z,0.80
2024-01-05T12:31:50.919Z,0.80
2024-01-05T12:34:27.414Z,0.90
2024-01-05T12:37:07.056Z,0.90
2024-01-05T12:39:36.272Z,0.77
2024-01-05T12:42:04.768Z,0.60
2024-01-05T12:44:35.046Z,0.88
2024-01-05T12:47:02.967Z,0.80
2024-01-05T12:49:36.391Z,0.95
2024-01-05T12:52:05.662Z,0.68
2024-01-05T12:54:40.877Z,0.98
2024-01-05T12:57:11.885Z,0.90
2024-01-05T12:59:47.550Z,1.02
2024-01-05T13:02:15.456Z,0.85
2024-01-05T13:04:43.894Z,1.13
2024-01-05T13:07:14.384Z,0.90
2024-01-05T13:09:48.156Z,0.77
2024-01-05T13:14:44.256Z,0.93
2024-01-05T13:17:13.653Z,0.68
2024-01-05T13:19:43.106Z,1.10
2024-01-05T13:22:12.623Z,1.00
2024-01-05T13:24:46.927Z,1.17
2024-01-05T13:27:15.793Z,1.08
2024-01-05T13:29:46.345Z,1.00
2024-01-05T13:32:15.794Z,1.00
2024-01-05T13:34:43.935Z,1.00
2024-01-05T13:37:12.693Z,0.93
2024-01-05T13:39:42.845Z,0.90
2024-01-05T13:42:12.021Z,1.08
2024-01-05T13:44:39.971Z,0.90
2024-01-05T13:47:08.061Z,1.40
2024-01-05T13:49:37.995Z,1.60
2024-01-05T13:52:06.447Z,1.35
2024-01-05T13:54:35.280Z,1.00
2024-01-05T13:57:04.351Z,1.00
2024-01-05T13:59:34.286Z,1.02
2024-01-05T14:02:03.975Z,1.27
2024-01-05T14:04:31.845Z,1.33
2024-01-05T14:07:01.549Z,1.00
2024-01-05T14:09:31.735Z,1.30
2024-01-05T14:11:59.695Z,1.10
2024-01-05T14:14:27.557Z,1.45
2024-01-05T14:16:58.213Z,0.90
2024-01-05T14:19:26.613Z,1.42
2024-01-05T14:21:54.512Z,0.85
2024-01-05T14:24:25.542Z,1.30
2024-01-05T14:26:53.488Z,1.40
2024-01-05T14:29:21.565Z,1.10
2024-01-05T14:31:49.449Z,1.50
2024-01-05T14:34:17.450Z,1.30
2024-01-05T14:36:45.708Z,1.45
2024-01-05T14:39:13.638Z,1.20
2024-01-05T14:41:43.060Z,1.27
2024-01-05T14:44:11.879Z,1.25
2024-01-05T14:46:40.070Z,1.40
2024-01-05T14:49:08.125Z,1.50
2024-01-05T14:51:36.036Z,1.27
2024-01-05T14:54:04.158Z,1.25
2024-01-05T14:56:33.118Z,1.13
2024-01-05T14:59:02.343Z,1.65
2024-01-05T15:01:30.184Z,0.90
2024-01-05T15:03:58.646Z,1.10
2024-01-05T15:06:27.514Z,1.60
2024-01-05T15:08:56.172Z,1.27
2024-01-05T15:11:24.019Z,1.23
2024-01-05T15:13:51.979Z,1.95
2024-01-05T15:16:21.216Z,1.50
2024-01-05T15:18:49.280Z,1.45
2024-01-05T15:21:24.536Z,1.35
2024-01-05T15:23:52.735Z,1.42
2024-01-05T15:26:20.580Z,1.60
2024-01-05T15:28:50.742Z,1.90
2024-01-05T15:31:19.340Z,1.70
2024-01-05T15:33:48.845Z,1.60
2024-01-05T15:36:18.687Z,1.70
2024-01-05T15:38:47.013Z,2.22
2024-01-05T15:41:15.880Z,1.70
2024-01-05T15:43:43.657Z,1.70
2024-01-05T15:46:12.207Z,2.17
2024-01-05T15:48:40.743Z,2.92
2024-01-05T15:51:16.368Z,2.17
2024-01-05T15:53:44.458Z,2.40
2024-01-05T15:56:12.336Z,2.08
2024-01-05T15:58:40.891Z,2.47
2024-01-05T16:01:09.044Z,2.60
2024-01-05T16:03:37.108Z,2.22
2024-01-05T16:06:11.654Z,2.30
2024-01-05T16:08:40.095Z,2.33
2024-01-05T16:11:08.150Z,2.38
2024-01-05T16:13:36.091Z,2.47
2024-01-05T16:16:12.220Z,2.58
2024-01-05T16:18:43.174Z,2.80
2024-01-05T16:21:12.980Z,3.40
2024-01-05T16:23:41.133Z,3.33
2024-01-05T16:26:09.866Z,3.17
2024-01-05T16:28:37.792Z,3.05
2024-01-05T16:31:05.815Z,2.72
2024-01-05T16:33:34.916Z,3.15
2024-01-05T16:36:03.272Z,3.47
2024-01-05T16:38:32.509Z,3.05
2024-01-05T16:41:00.244Z,3.85
2024-01-05T16:43:28.068Z,3.80
2024-01-05T16:45:56.264Z,2.75
2024-01-05T16:48:24.375Z,3.13
2024-01-05T16:50:52.490Z,2.85
2024-01-05T16:53:20.850Z,2.78
2024-01-05T16:55:49.966Z,3.53
2024-01-05T16:58:17.994Z,3.85
2024-01-05T17:00:45.983Z,4.10
2024-01-05T17:03:15.594Z,4.10
2024-01-05T17:05:45.643Z,4.20
2024-01-05T17:08:13.600Z,3.10
2024-01-05T17:10:42.530Z,4.60
2024-01-05T17:13:11.759Z,3.78
2024-01-05T17:15:40.140Z,5.18
2024-01-05T17:18:08.234Z,4.53
2024-01-05T17:20:36.340Z,5.53
2024-01-05T17:23:04.598Z,5.03
2024-01-05T17:25:32.514Z,4.68
2024-01-05T17:28:00.351Z,4.32
2024-01-05T17:30:29.836Z,6.43
2024-01-05T17:32:58.644Z,5.45
2024-01-05T17:35:27.169Z,4.13
2024-01-05T17:37:57.653Z,5.38
2024-01-05T17:40:26.172Z,5.30
2024-01-05T17:42:55.256Z,6.95
2024-01-05T17:45:23.239Z,6.13
2024-01-05T17:47:52.952Z,5.40
2024-01-05T17:50:22.690Z,4.80
2024-01-05T17:52:55.087Z,3.53
2024-01-05T17:55:22.999Z,4.00
2024-01-05T17:57:50.965Z,3.22
2024-01-05T18:00:19.393Z,4.32
2024-01-05T18:02:47.403Z,3.85
2024-01-05T18:05:16.925Z,3.47
2024-01-05T18:07:45.014Z,3.67
2024-01-05T18:10:13.711Z,3.72
2024-01-05T18:12:44.033Z,3.20
2024-01-05T18:15:12.930Z,3.50
2024-01-05T18:17:40.879Z,3.88
2024-01-05T18:20:10.215Z,4.00
2024-01-05T18:22:39.538Z,4.40
2024-01-05T18:25:09.497Z,4.43
2024-01-05T18:27:37.463Z,3.97
2024-01-05T18:30:07.261Z,3.80
2024-01-05T18:32:40.453Z,3.70
2024-01-05T18:35:09.167Z,3.83
2024-01-05T18:37:37.111Z,4.32
2024-01-05T18:40:08.472Z,4.13
2024-01-05T18:42:36.356Z,3.85
2024-01-05T18:45:05.566Z,4.80
2024-01-05T18:47:33.577Z,3.70
2024-01-05T18:50:02.790Z,4.35
2024-01-05T18:52:30.634Z,5.03
2024-01-05T18:54:58.940Z,6.55
2024-01-05T18:57:28.601Z,7.47
2024-01-05T18:59:56.480Z,10.00
2024-01-05T19:02:24.722Z,6.88
2024-01-05T19:04:52.614Z,9.18
2024-01-05T19:07:24.995Z,10.30
2024-01-05T19:09:52.886Z,5.97
2024-01-05T19:12:20.755Z,7.03
2024-01-05T19:14:50.265Z,7.47
2024-01-05T19:17:20.696Z,6.10
2024-01-05T19:20:17.355Z,8.07
2024-01-05T19:22:45.142Z,7.93
2024-01-05T19:25:13.299Z,6.57
2024-01-05T19:27:41.170Z,8.68
2024-01-05T19:30:11.461Z,6.95
2024-01-05T19:32:40.386Z,7.90
2024-01-05T19:35:14.609Z,8.82
2024-01-05T19:37:44.032Z,8.50
2024-01-05T19:40:14.687Z,11.75
2024-01-05T19:42:43.002Z,10.27
2024-01-05T19:45:13.487Z,12.43
2024-01-05T19:47:45.783Z,11.25
2024-01-05T19:50:14.802Z,7.82
2024-01-05T19:52:42.685Z,7.70
2024-01-05T19:55:18.376Z,7.40
2024-01-05T19:57:46.388Z,9.05
2024-01-05T20:00:17.933Z,8.65
2024-01-05T20:02:45.840Z,8.80
2024-01-05T20:05:15.390Z,8.55
2024-01-05T20:07:43.254Z,8.98
2024-01-05T20:10:12.051Z,9.40
2024-01-05T20:12:46.175Z,8.88
2024-01-05T20:15:14.671Z,7.07
2024-01-05T20:17:44.538Z,6.97
2024-01-05T20:20:12.585Z,7.55
2024-01-05T20:22:41.512Z,6.53
2024-01-05T20:25:10.325Z,7.53
2024-01-05T20:27:38.646Z,5.65
2024-01-05T20:30:09.601Z,4.57
2024-01-05T20:32:40.658Z,4.65
2024-01-05T20:35:14.227Z,5.25
2024-01-05T20:40:10.608Z,4.20
2024-01-05T20:42:39.022Z,4.45
2024-01-05T20:45:12.387Z,4.47
2024-01-05T20:47:41.025Z,3.97
2024-01-05T20:50:13.768Z,4.07
2024-01-05T20:52:42.721Z,3.67
2024-01-05T20:55:10.573Z,4.45
2024-01-05T20:57:38.474Z,4.28
2024-01-05T21:00:07.859Z,4.40
2024-01-05T21:02:36.369Z,4.50
2024-01-05T21:05:04.901Z,4.63
2024-01-05T21:07:34.155Z,5.43
2024-01-05T21:10:02.056Z,6.25
2024-01-05T21:12:30.089Z,6.72
2024-01-05T21:14:57.902Z,5.82
2024-01-05T21:17:25.861Z,8.20
2024-01-05T21:19:54.107Z,6.97
2024-01-05T21:22:22.375Z,7.13
2024-01-05T21:24:52.916Z,7.60
2024-01-05T21:27:20.798Z,8.00
2024-01-05T21:29:48.614Z,6.75
2024-01-05T21:32:17.808Z,5.85
2024-01-05T21:34:46.725Z,5.38
2024-01-05T21:37:14.761Z,5.65
2024-01-05T21:39:42.798Z,5.88
2024-01-05T21:42:12.106Z,5.68
2024-01-05T21:44:40.262Z,5.90
2024-01-05T21:47:08.094Z,5.78
2024-01-05T21:49:38.593Z,6.25
2024-01-05T21:52:09.829Z,5.65
2024-01-05T21:54:38.699Z,6.28
2024-01-05T21:57:06.821Z,4.03
2024-01-05T21:59:36.138Z,5.38
2024-01-05T22:02:04.007Z,6.03
2024-01-05T22:04:33.763Z,6.32
2024-01-05T22:07:04.542Z,6.40
2024-01-05T22:09:32.535Z,6.70
2024-01-05T22:12:00.356Z,6.43
2024-01-05T22:14:28.425Z,5.80
2024-01-05T22:16:57.980Z,7.05
2024-01-05T22:19:26.440Z,6.38
2024-01-05T22:21:54.392Z,7.28
2024-01-05T22:24:22.360Z,7.40
2024-01-05T22:26:50.231Z,5.30
2024-01-05T22:29:18.053Z,7.00
2024-01-05T22:31:47.277Z,6.03
2024-01-05T22:34:17.017Z,6.65
2024-01-05T22:36:44.957Z,6.53
2024-01-05T22:39:13.235Z,6.40
2024-01-05T22:41:41.312Z,6.65
2024-01-05T22:44:09.219Z,5.72
2024-01-05T22:46:37.457Z,5.38
2024-01-05T22:49:05.642Z,6.38
2024-01-05T22:51:34.992Z,6.53
2024-01-05T22:54:04.396Z,6.57
2024-01-05T22:56:32.485Z,7.45
2024-01-05T22:59:00.353Z,7.03
2024-01-05T23:01:28.145Z,7.55
2024-01-05T23:03:56.027Z,8.13
2024-01-05T23:06:24.503Z,6.93
2024-01-05T23:08:53.950Z,8.25
2024-01-05T23:11:21.915Z,7.00
2024-01-05T23:13:49.790Z,8.02
2024-01-05T23:16:17.704Z,7.40
2024-01-05T23:18:45.825Z,8.30
2024-01-05T23:21:14.100Z,7.72
2024-01-05T23:23:43.057Z,7.65
2024-01-05T23:26:17.110Z,7.07
2024-01-05T23:28:45.469Z,6.32
2024-01-05T23:31:14.214Z,7.65
2024-01-05T23:33:42.238Z,8.48
2024-01-05T23:36:10.424Z,7.43
2024-01-05T23:38:38.486Z,7.82
2024-01-05T23:41:06.475Z,7.97
2024-01-05T23:43:35.843Z,7.30
2024-01-05T23:46:03.735Z,7.70
2024-01-05T23:48:31.798Z,8.48
2024-01-05T23:50:59.691Z,7.00
2024-01-05T23:53:27.516Z,7.60
2024-01-05T23:55:55.260Z,6.70
2024-01-05T23:58:23.181Z,7.85
